createdAt,value
2023-03-03T00:01:25.562Z,0.50
2023-03-03T00:03:54.600Z,0.50
2023-03-03T00:06:24.565Z,0.50
2023-03-03T00:08:52.980Z,0.50
2023-03-03T00:11:21.345Z,0.50
2023-03-03T00:13:54.103Z,0.50
2023-03-03T00:16:30.040Z,0.50
2023-03-03T00:18:59.082Z,0.50
2023-03-03T00:21:30.450Z,0.50
2023-03-03T00:24:20.100Z,0.50
2023-03-03T00:26:49.636Z,0.50
2023-03-03T00:29:31.560Z,0.60
2023-03-03T00:32:25.485Z,0.50
2023-03-03T00:34:55.342Z,0.40
2023-03-03T00:37:34.043Z,0.40
2023-03-03T00:40:25.061Z,0.40
2023-03-03T00:42:55.486Z,0.40
2023-03-03T00:45:33.360Z,0.40
2023-03-03T00:48:18.134Z,0.40
2023-03-03T00:50:46.492Z,0.40
2023-03-03T00:53:18.225Z,0.40
2023-03-03T00:55:50.042Z,0.40
2023-03-03T00:58:21.858Z,0.40
2023-03-03T01:00:52.529Z,0.40
2023-03-03T01:03:27.037Z,0.40
2023-03-03T01:05:56.183Z,0.40
2023-03-03T01:08:24.645Z,0.40
2023-03-03T01:10:55.886Z,0.40
2023-03-03T01:13:27.130Z,0.40
2023-03-03T01:15:55.670Z,0.40
2023-03-03T01:18:25.408Z,0.30
2023-03-03T01:20:54.154Z,0.30
2023-03-03T01:23:22.943Z,0.30
2023-03-03T01:25:51.268Z,0.30
2023-03-03T01:28:19.744Z,0.30
2023-03-03T01:30:48.123Z,0.50
2023-03-03T01:33:16.438Z,0.30
2023-03-03T01:35:48.415Z,0.30
2023-03-03T01:38:17.103Z,0.30
2023-03-03T01:40:53.140Z,0.40
2023-03-03T01:43:21.669Z,0.30
2023-03-03T01:46:28.799Z,0.30
2023-03-03T01:49:03.166Z,0.40
2023-03-03T01:51:35.014Z,0.30
2023-03-03T01:54:05.361Z,0.20
2023-03-03T01:56:33.951Z,0.30
2023-03-03T01:59:07.116Z,0.20
2023-03-03T02:01:35.738Z,0.30
2023-03-03T02:04:04.860Z,0.30
2023-03-03T02:06:39.777Z,0.30
2023-03-03T02:09:13.140Z,0.30
2023-03-03T02:11:45.411Z,0.30
2023-03-03T02:14:14.589Z,0.30
2023-03-03T02:16:45.409Z,0.30
2023-03-03T02:19:22.003Z,0.30
2023-03-03T02:21:51.842Z,0.30
2023-03-03T02:24:27.536Z,0.30
2023-03-03T02:26:57.688Z,0.30
2023-03-03T02:29:26.087Z,0.30
2023-03-03T02:31:54.760Z,0.30
2023-03-03T02:34:23.795Z,0.30
2023-03-03T02:36:53.532Z,0.30
2023-03-03T02:39:24.777Z,0.30
2023-03-03T02:41:59.598Z,0.30
2023-03-03T02:44:35.098Z,0.30
2023-03-03T02:47:03.473Z,0.30
2023-03-03T02:49:35.751Z,0.30
2023-03-03T02:52:09.795Z,0.30
2023-03-03T02:54:40.133Z,0.10
2023-03-03T02:57:10.383Z,0.20
2023-03-03T02:59:38.687Z,0.10
2023-03-03T03:02:15.646Z,0.20
2023-03-03T03:04:43.935Z,0.10
2023-03-03T03:07:17.357Z,0.10
2023-03-03T03:09:45.857Z,0.10
2023-03-03T03:12:16.104Z,0.10
2023-03-03T03:14:47.089Z,0.10
2023-03-03T03:17:15.371Z,0.10
2023-03-03T03:19:44.628Z,0.10
2023-03-03T03:22:13.331Z,0.10
2023-03-03T03:24:44.840Z,0.00
2023-03-03T03:27:15.427Z,0.00
2023-03-03T03:29:43.768Z,0.10
2023-03-03T03:32:14.760Z,0.10
2023-03-03T03:34:43.194Z,0.10
2023-03-03T03:37:12.764Z,0.10
2023-03-03T03:39:41.085Z,0.10
2023-03-03T03:42:09.403Z,0.00
2023-03-03T03:44:39.163Z,0.00
2023-03-03T03:47:07.680Z,0.00
2023-03-03T03:49:36.029Z,0.00
2023-03-03T03:52:06.817Z,-0.10
2023-03-03T03:54:36.099Z,-0.10
2023-03-03T03:57:04.674Z,0.00
2023-03-03T03:59:33.256Z,0.00
2023-03-03T04:02:03.459Z,0.00
2023-03-03T04:04:32.881Z,0.00
2023-03-03T04:07:01.367Z,0.00
2023-03-03T04:09:29.745Z,0.00
2023-03-03T04:11:58.126Z,-0.10
2023-03-03T04:14:27.114Z,-0.10
2023-03-03T04:16:56.361Z,-0.10
2023-03-03T04:19:28.278Z,-0.10
2023-03-03T04:21:57.093Z,-0.10
2023-03-03T04:24:25.393Z,-0.10
2023-03-03T04:26:54.353Z,-0.10
2023-03-03T04:29:23.091Z,-0.10
2023-03-03T04:31:51.539Z,-0.10
2023-03-03T04:34:20.753Z,-0.20
2023-03-03T04:36:51.787Z,-0.20
2023-03-03T04:39:20.457Z,-0.20
2023-03-03T04:41:49.251Z,-0.20
2023-03-03T04:44:17.623Z,-0.10
2023-03-03T04:46:45.961Z,-0.10
2023-03-03T04:49:14.782Z,-0.20
2023-03-03T04:51:44.477Z,-0.20
2023-03-03T04:54:17.152Z,-0.20
2023-03-03T04:56:45.854Z,-0.20
2023-03-03T04:59:14.709Z,-0.20
2023-03-03T05:01:43.295Z,-0.20
2023-03-03T05:04:11.754Z,-0.20
2023-03-03T05:06:41.013Z,-0.20
2023-03-03T05:09:11.509Z,-0.30
2023-03-03T05:11:41.140Z,-0.30
2023-03-03T05:14:09.406Z,-0.30
2023-03-03T05:16:37.736Z,-0.30
2023-03-03T05:19:06.135Z,-0.20
2023-03-03T05:21:36.015Z,-0.10
2023-03-03T05:24:06.045Z,-0.20
2023-03-03T05:26:34.581Z,-0.20
2023-03-03T05:29:04.939Z,-0.20
2023-03-03T05:31:33.358Z,-0.20
2023-03-03T05:34:04.290Z,-0.10
2023-03-03T05:36:32.724Z,-0.10
2023-03-03T05:39:01.030Z,0.00
2023-03-03T05:41:31.731Z,0.00
2023-03-03T05:44:00.117Z,0.10
2023-03-03T05:46:29.798Z,0.10
2023-03-03T05:48:58.195Z,0.20
2023-03-03T05:51:26.679Z,0.20
2023-03-03T05:53:56.525Z,0.20
2023-03-03T05:56:27.387Z,0.20
2023-03-03T05:58:56.190Z,0.20
2023-03-03T06:01:24.466Z,0.20
2023-03-03T06:03:54.245Z,0.30
2023-03-03T06:06:22.599Z,0.30
2023-03-03T06:08:50.874Z,0.40
2023-03-03T06:11:19.531Z,0.30
2023-03-03T06:13:50.056Z,0.40
2023-03-03T06:16:18.609Z,0.40
2023-03-03T06:18:46.916Z,0.40
2023-03-03T06:21:16.673Z,0.50
2023-03-03T06:23:45.140Z,0.50
2023-03-03T06:26:13.482Z,0.50
2023-03-03T06:28:41.844Z,0.50
2023-03-03T06:31:10.197Z,0.50
2023-03-03T06:33:42.266Z,0.60
2023-03-03T06:36:12.872Z,0.60
2023-03-03T06:38:42.635Z,0.60
2023-03-03T06:41:11.155Z,0.70
2023-03-03T06:43:42.010Z,0.60
2023-03-03T06:46:10.549Z,0.50
2023-03-03T06:48:39.039Z,0.50
2023-03-03T06:51:21.515Z,0.40
2023-03-03T06:53:53.188Z,0.50
2023-03-03T06:56:21.479Z,0.50
2023-03-03T06:58:50.495Z,0.50
2023-03-03T07:01:19.399Z,0.50
2023-03-03T07:03:47.971Z,0.50
2023-03-03T07:06:24.482Z,0.60
2023-03-03T07:08:55.556Z,0.70
2023-03-03T07:11:25.136Z,0.90
2023-03-03T07:13:55.384Z,1.00
2023-03-03T07:16:27.918Z,1.10
2023-03-03T07:18:58.608Z,1.10
2023-03-03T07:21:34.320Z,1.10
2023-03-03T07:24:27.520Z,1.10
2023-03-03T07:27:00.302Z,1.10
2023-03-03T07:29:31.629Z,1.10
2023-03-03T07:32:02.573Z,1.00
2023-03-03T07:34:38.819Z,1.00
2023-03-03T07:37:16.638Z,1.00
2023-03-03T07:39:47.765Z,1.10
2023-03-03T07:42:22.510Z,1.10
2023-03-03T07:44:59.344Z,1.10
2023-03-03T07:47:29.542Z,1.20
2023-03-03T07:50:01.705Z,1.30
2023-03-03T07:52:36.525Z,1.30
2023-03-03T07:55:27.452Z,1.40
2023-03-03T07:57:59.107Z,1.50
2023-03-03T08:01:16.416Z,1.50
2023-03-03T08:03:46.951Z,1.50
2023-03-03T08:06:42.866Z,1.50
2023-03-03T08:09:39.196Z,1.60
2023-03-03T08:12:32.278Z,1.80
2023-03-03T08:15:16.081Z,1.80
2023-03-03T08:17:45.913Z,1.90
2023-03-03T08:20:46.131Z,2.10
2023-03-03T08:23:15.729Z,2.20
2023-03-03T08:25:44.069Z,2.20
2023-03-03T08:28:14.139Z,2.30
2023-03-03T08:30:43.684Z,2.30
2023-03-03T08:33:12.943Z,2.30
2023-03-03T08:35:41.807Z,2.30
2023-03-03T08:38:13.114Z,2.30
2023-03-03T08:40:42.496Z,2.30
2023-03-03T08:43:14.611Z,2.30
2023-03-03T08:45:45.166Z,2.40
2023-03-03T08:48:14.141Z,2.40
2023-03-03T08:50:43.000Z,2.40
2023-03-03T08:53:12.886Z,2.40
2023-03-03T08:55:41.574Z,2.40
2023-03-03T08:58:09.956Z,2.40
2023-03-03T09:00:38.472Z,2.50
2023-03-03T09:03:08.374Z,2.50
2023-03-03T09:05:38.439Z,2.60
2023-03-03T09:08:10.850Z,2.70
2023-03-03T09:10:40.103Z,2.70
2023-03-03T09:13:13.610Z,2.80
2023-03-03T09:15:42.293Z,2.90
2023-03-03T09:18:18.650Z,2.90
2023-03-03T09:20:47.890Z,3.00
2023-03-03T09:23:37.144Z,3.00
2023-03-03T09:26:28.229Z,3.10
2023-03-03T09:28:59.785Z,3.20
2023-03-03T09:31:33.535Z,3.20
2023-03-03T09:34:20.360Z,3.20
2023-03-03T09:36:49.566Z,3.20
2023-03-03T09:39:20.365Z,3.20
2023-03-03T09:42:18.595Z,3.30
2023-03-03T09:45:24.702Z,3.30
2023-03-03T09:48:09.848Z,3.30
2023-03-03T09:50:50.085Z,3.30
2023-03-03T09:53:32.920Z,3.20
2023-03-03T09:56:10.497Z,3.20
2023-03-03T09:58:54.641Z,3.20
2023-03-03T10:01:47.775Z,3.20
2023-03-03T10:04:40.312Z,3.20
2023-03-03T10:07:24.516Z,3.20
2023-03-03T10:10:13.415Z,3.20
2023-03-03T10:12:51.639Z,3.20
2023-03-03T10:15:33.780Z,3.20
2023-03-03T10:18:08.312Z,3.20
2023-03-03T10:20:56.180Z,3.20
2023-03-03T10:23:41.649Z,3.20
2023-03-03T10:26:18.376Z,3.10
2023-03-03T10:29:22.094Z,3.10
2023-03-03T10:32:14.352Z,3.20
2023-03-03T10:35:02.395Z,3.20
2023-03-03T10:37:39.852Z,3.20
2023-03-03T10:40:22.717Z,3.10
2023-03-03T10:43:29.806Z,3.10
2023-03-03T10:46:25.025Z,3.10
2023-03-03T10:49:28.757Z,3.10
2023-03-03T10:52:15.217Z,3.10
2023-03-03T10:55:05.605Z,3.00
2023-03-03T10:57:43.540Z,3.00
2023-03-03T11:00:22.957Z,3.00
2023-03-03T11:03:14.947Z,3.00
2023-03-03T11:05:49.392Z,3.00
2023-03-03T11:08:22.080Z,3.10
2023-03-03T11:11:02.071Z,3.10
2023-03-03T11:13:41.951Z,3.00
2023-03-03T11:16:30.189Z,3.00
2023-03-03T11:19:09.308Z,2.90
2023-03-03T11:21:46.960Z,2.90
2023-03-03T11:24:44.711Z,2.80
2023-03-03T11:27:56.534Z,2.80
2023-03-03T11:30:46.609Z,2.80
2023-03-03T11:33:22.067Z,2.80
2023-03-03T11:35:59.976Z,2.90
2023-03-03T11:38:52.444Z,2.90
2023-03-03T11:41:41.065Z,2.80
2023-03-03T11:44:23.656Z,2.80
2023-03-03T11:46:59.753Z,2.80
2023-03-03T11:49:34.345Z,2.90
2023-03-03T11:52:12.626Z,2.90
2023-03-03T11:54:50.369Z,2.80
2023-03-03T11:57:26.367Z,2.80
2023-03-03T12:00:06.249Z,2.80
2023-03-03T12:03:28.564Z,2.70
2023-03-03T12:06:01.469Z,2.60
2023-03-03T12:08:42.806Z,2.60
2023-03-03T12:11:16.527Z,2.60
2023-03-03T12:13:54.348Z,2.60
2023-03-03T12:16:40.729Z,2.60
2023-03-03T12:19:37.581Z,2.60
2023-03-03T12:22:34.113Z,2.50
2023-03-03T12:25:29.550Z,2.40
2023-03-03T12:28:06.295Z,2.50
2023-03-03T12:31:02.450Z,2.40
2023-03-03T12:33:49.974Z,2.50
2023-03-03T12:36:42.580Z,2.50
2023-03-03T12:39:33.759Z,2.40
2023-03-03T12:42:10.446Z,2.40
2023-03-03T12:44:44.942Z,2.40
2023-03-03T12:47:22.909Z,2.40
2023-03-03T12:50:08.519Z,2.40
2023-03-03T12:52:47.139Z,2.40
2023-03-03T12:55:27.230Z,2.50
2023-03-03T12:58:04.172Z,2.50
2023-03-03T13:00:43.276Z,2.40
2023-03-03T13:03:18.883Z,2.40
2023-03-03T13:05:56.082Z,2.40
2023-03-03T13:08:39.508Z,2.40
2023-03-03T13:11:29.934Z,2.40
2023-03-03T13:14:05.934Z,2.40
2023-03-03T13:16:41.313Z,2.40
2023-03-03T13:19:15.582Z,2.40
2023-03-03T13:21:49.798Z,2.40
2023-03-03T13:24:24.880Z,2.40
2023-03-03T13:27:07.139Z,2.40
2023-03-03T13:29:40.021Z,2.40
2023-03-03T13:32:13.977Z,2.50
2023-03-03T13:34:50.675Z,2.40
2023-03-03T13:37:23.581Z,2.50
2023-03-03T13:40:01.386Z,2.40
2023-03-03T13:42:40.060Z,2.40
2023-03-03T13:45:18.794Z,2.40
2023-03-03T13:47:53.206Z,2.30
2023-03-03T13:50:28.482Z,2.30
2023-03-03T13:53:13.717Z,2.30
2023-03-03T13:55:46.525Z,2.30
2023-03-03T13:58:25.739Z,2.30
2023-03-03T14:01:03.099Z,2.40
2023-03-03T14:03:55.475Z,2.40
2023-03-03T14:06:28.385Z,2.50
2023-03-03T14:09:15.405Z,2.40
2023-03-03T14:11:54.795Z,2.40
2023-03-03T14:14:40.024Z,2.30
2023-03-03T14:17:17.796Z,2.30
2023-03-03T14:19:48.777Z,2.30
2023-03-03T14:22:24.020Z,2.30
2023-03-03T14:25:06.186Z,2.30
2023-03-03T14:27:42.669Z,2.30
2023-03-03T14:30:36.046Z,2.30
2023-03-03T14:33:18.022Z,2.30
2023-03-03T14:35:52.108Z,2.30
2023-03-03T14:38:21.627Z,2.40
2023-03-03T14:40:51.126Z,2.40
2023-03-03T14:43:27.868Z,2.30
2023-03-03T14:45:56.677Z,2.30
2023-03-03T14:48:26.483Z,2.30
2023-03-03T14:50:58.504Z,2.20
2023-03-03T14:53:34.814Z,2.20
2023-03-03T14:56:25.072Z,2.20
2023-03-03T14:58:55.795Z,2.20
2023-03-03T15:01:31.701Z,2.20
2023-03-03T15:04:02.840Z,2.20
2023-03-03T15:06:43.509Z,2.20
2023-03-03T15:09:33.900Z,2.20
2023-03-03T15:12:03.140Z,2.20
2023-03-03T15:14:37.741Z,2.20
2023-03-03T15:17:25.681Z,2.20
2023-03-03T15:20:14.738Z,2.20
2023-03-03T15:22:58.372Z,2.20
2023-03-03T15:25:42.820Z,2.20
2023-03-03T15:28:26.317Z,2.20
2023-03-03T15:31:04.559Z,2.10
2023-03-03T15:33:39.640Z,2.10
2023-03-03T15:36:16.790Z,2.10
2023-03-03T15:38:54.781Z,2.00
2023-03-03T15:41:35.466Z,2.00
2023-03-03T15:44:14.778Z,2.00
2023-03-03T15:47:05.913Z,1.90
2023-03-03T15:50:07.337Z,1.90
2023-03-03T15:52:47.304Z,1.90
2023-03-03T15:55:29.110Z,2.00
2023-03-03T15:58:13.853Z,2.00
2023-03-03T16:00:57.502Z,2.00
2023-03-03T16:03:32.246Z,2.00
2023-03-03T16:06:06.936Z,2.00
2023-03-03T16:08:46.828Z,2.00
2023-03-03T16:11:22.414Z,2.00
2023-03-03T16:14:05.136Z,2.00
2023-03-03T16:16:44.701Z,1.90
2023-03-03T16:19:32.659Z,2.00
2023-03-03T16:22:48.704Z,1.90
2023-03-03T16:25:32.810Z,1.90
2023-03-03T16:28:06.903Z,1.80
2023-03-03T16:30:41.194Z,1.80
2023-03-03T16:33:23.631Z,1.90
2023-03-03T16:36:05.140Z,1.90
2023-03-03T16:38:38.483Z,1.80
2023-03-03T16:41:11.996Z,1.90
2023-03-03T16:43:47.655Z,1.90
2023-03-03T16:46:32.679Z,1.90
2023-03-03T16:49:09.626Z,1.90
2023-03-03T16:51:49.921Z,1.90
2023-03-03T16:54:31.306Z,1.90
2023-03-03T16:57:06.429Z,1.90
2023-03-03T16:59:49.656Z,1.80
2023-03-03T17:02:44.238Z,1.90
2023-03-03T17:05:21.761Z,1.80
2023-03-03T17:08:05.046Z,1.80
2023-03-03T17:10:43.454Z,1.80
2023-03-03T17:13:36.877Z,1.80
2023-03-03T17:16:13.418Z,1.90
2023-03-03T17:18:53.935Z,1.90
2023-03-03T17:21:33.510Z,1.80
2023-03-03T17:24:09.485Z,1.80
2023-03-03T17:26:54.584Z,1.90
2023-03-03T17:29:44.340Z,1.80
2023-03-03T17:32:27.388Z,1.80
2023-03-03T17:35:23.913Z,1.80
2023-03-03T17:38:06.193Z,1.80
2023-03-03T17:40:54.131Z,1.80
2023-03-03T17:43:26.897Z,1.90
2023-03-03T17:46:00.410Z,1.90
2023-03-03T17:48:57.421Z,1.80
2023-03-03T17:51:48.689Z,1.80
2023-03-03T17:54:39.435Z,1.80
2023-03-03T17:57:22.785Z,1.80
2023-03-03T18:00:17.637Z,1.60
2023-03-03T18:03:14.590Z,1.80
2023-03-03T18:06:18.920Z,1.80
2023-03-03T18:09:14.151Z,1.80
2023-03-03T18:12:01.317Z,1.80
2023-03-03T18:14:56.026Z,1.80
2023-03-03T18:17:52.150Z,1.80
2023-03-03T18:20:43.211Z,1.80
2023-03-03T18:23:30.960Z,1.80
2023-03-03T18:26:15.191Z,1.70
2023-03-03T18:28:53.865Z,1.80
2023-03-03T18:31:28.290Z,1.70
2023-03-03T18:34:04.392Z,1.80
2023-03-03T18:36:53.068Z,1.80
2023-03-03T18:39:39.022Z,1.70
2023-03-03T18:42:37.873Z,1.70
2023-03-03T18:45:41.265Z,1.70
2023-03-03T18:48:12.537Z,1.70
2023-03-03T18:50:45.674Z,1.70
2023-03-03T18:53:30.113Z,1.70
2023-03-03T18:56:00.076Z,1.60
2023-03-03T18:58:40.940Z,1.60
2023-03-03T19:01:48.128Z,1.60
2023-03-03T19:04:27.342Z,1.60
2023-03-03T19:07:11.670Z,1.60
2023-03-03T19:09:52.517Z,1.50
2023-03-03T19:12:41.055Z,1.60
2023-03-03T19:15:52.067Z,1.60
2023-03-03T19:18:23.852Z,1.60
2023-03-03T19:20:58.196Z,1.60
2023-03-03T19:23:48.825Z,1.70
2023-03-03T19:26:40.048Z,1.70
2023-03-03T19:29:22.553Z,1.60
2023-03-03T19:31:59.393Z,1.60
2023-03-03T19:34:33.860Z,1.60
2023-03-03T19:37:20.069Z,1.60
2023-03-03T19:40:00.955Z,1.60
2023-03-03T19:42:46.458Z,1.60
2023-03-03T19:45:34.111Z,1.60
2023-03-03T19:48:07.346Z,1.70
2023-03-03T19:50:46.749Z,1.70
2023-03-03T19:53:26.321Z,1.70
2023-03-03T19:56:16.791Z,1.70
2023-03-03T19:58:57.150Z,1.60
2023-03-03T20:01:31.037Z,1.70
2023-03-03T20:04:17.638Z,1.70
2023-03-03T20:06:57.247Z,1.70
2023-03-03T20:09:39.955Z,1.80
2023-03-03T20:12:44.356Z,1.70
2023-03-03T20:15:19.006Z,1.80
2023-03-03T20:18:16.691Z,1.80
2023-03-03T20:21:13.192Z,1.70
2023-03-03T20:23:53.137Z,1.70
2023-03-03T20:26:28.906Z,1.80
2023-03-03T20:29:15.856Z,1.80
2023-03-03T20:31:51.224Z,1.80
2023-03-03T20:34:29.462Z,1.80
2023-03-03T20:37:05.312Z,1.80
2023-03-03T20:39:51.706Z,1.80
2023-03-03T20:42:31.799Z,1.70
2023-03-03T20:45:29.133Z,1.70
2023-03-03T20:48:12.276Z,1.70
2023-03-03T20:50:52.418Z,1.70
2023-03-03T20:53:27.900Z,1.70
2023-03-03T20:56:06.683Z,1.80
2023-03-03T20:58:50.979Z,1.80
2023-03-03T21:01:29.041Z,1.90
2023-03-03T21:04:21.810Z,1.90
2023-03-03T21:06:50.828Z,1.80
2023-03-03T21:09:30.224Z,1.80
2023-03-03T21:11:59.586Z,1.90
2023-03-03T21:14:30.537Z,1.90
2023-03-03T21:17:02.727Z,1.90
2023-03-03T21:19:32.809Z,1.90
2023-03-03T21:22:02.772Z,1.90
2023-03-03T21:24:54.452Z,1.80
2023-03-03T21:27:27.811Z,1.80
2023-03-03T21:30:13.512Z,1.80
2023-03-03T21:32:45.184Z,1.80
2023-03-03T21:35:15.754Z,1.80
2023-03-03T21:37:48.011Z,1.80
2023-03-03T21:40:20.911Z,1.90
2023-03-03T21:42:49.713Z,1.90
2023-03-03T21:45:20.640Z,1.90
2023-03-03T21:47:49.269Z,1.90
2023-03-03T21:50:20.314Z,1.80
2023-03-03T21:52:49.009Z,1.90
2023-03-03T21:55:17.674Z,1.90
2023-03-03T21:57:45.946Z,1.90
2023-03-03T22:00:14.992Z,1.90
2023-03-03T22:02:44.763Z,1.90
2023-03-03T22:05:13.139Z,2.00
2023-03-03T22:07:41.544Z,2.00
2023-03-03T22:10:11.253Z,2.00
2023-03-03T22:12:39.630Z,2.00
2023-03-03T22:15:08.796Z,2.10
2023-03-03T22:17:37.111Z,2.10
2023-03-03T22:20:07.911Z,2.00
2023-03-03T22:22:36.183Z,2.10
2023-03-03T22:25:04.609Z,2.10
2023-03-03T22:27:35.926Z,2.10
2023-03-03T22:30:07.713Z,2.10
2023-03-03T22:32:36.114Z,2.20
2023-03-03T22:35:04.547Z,2.20
2023-03-03T22:37:34.285Z,2.10
2023-03-03T22:40:02.662Z,2.10
2023-03-03T22:42:31.017Z,2.10
2023-03-03T22:44:59.316Z,2.10
2023-03-03T22:47:27.650Z,2.10
2023-03-03T22:49:55.925Z,2.10
2023-03-03T22:52:25.436Z,2.10
2023-03-03T22:54:55.090Z,2.10
2023-03-03T22:57:23.464Z,2.10
2023-03-03T22:59:51.785Z,2.10
2023-03-03T23:02:20.150Z,2.10
2023-03-03T23:04:48.708Z,2.10
2023-03-03T23:07:17.004Z,2.10
2023-03-03T23:09:45.348Z,2.10
2023-03-03T23:12:15.412Z,2.10
2023-03-03T23:14:43.884Z,2.10
2023-03-03T23:17:12.337Z,2.10
2023-03-03T23:19:40.697Z,2.10
2023-03-03T23:22:09.076Z,2.10
2023-03-03T23:24:37.403Z,2.10
2023-03-03T23:27:05.715Z,2.10
2023-03-03T23:29:35.560Z,2.10
2023-03-03T23:32:04.962Z,2.10
2023-03-03T23:34:33.603Z,2.10
2023-03-03T23:37:02.610Z,2.10
2023-03-03T23:39:31.205Z,2.10
2023-03-03T23:41:59.569Z,2.20
2023-03-03T23:44:30.807Z,2.20
2023-03-03T23:47:00.625Z,2.20
2023-03-03T23:49:28.934Z,2.20
2023-03-03T23:51:57.200Z,2.20
2023-03-03T23:54:25.686Z,2.20
2023-03-03T23:56:54.160Z,2.20
2023-03-03T23:59:22.533Z,2.20
